1998 ANACELLE (1998036S13066)


On this page: IBTrACS data - Map and Plots - Positions - Intensities - Original source data

Summary

Start Feb 5
End Feb 14
Basin SI
LMI 115 kt
Sources jtwc_sh
reunion
neumann
In WMO? Yes
Previous storm 1998 BELTANE (SI)
Previous in basin 1998 BELTANE (SI)
Concurrent storms 1998 URSALA (SP)
1998 WES (SP)
1998 BELTANE (SI)
1998 ANACELLE (SI)
1998 VICTOR (SP)
1998 MISSING (SI)
Next in basin 1998 VICTOR (SP)
Next storm 1998 VICTOR (SP)

top of page IBTrACS Data: File Access

top of page HURSAT Data: File Access

Image of storm

top of page Plots:

Map of storm track will not appear if FTP is down
Time series of cyclone Maximum Sustained Wind will not appear if FTP is down
Time series of cyclone Minimum Central Pressure will not appear if FTP is down

top of page Track Data:Position

jtwc_sh reunion neumann
Date Lat Lon Lat Lon Lat Lon
1998-02-05 00:00:00 -12.7 66.2
1998-02-05 06:00:00 -12.7 65.7
1998-02-05 12:00:00 -12.7 65.1
1998-02-05 18:00:00 -12.8 64.6
1998-02-06 00:00:00 -12.9 64.4 -12.7 65.1 -12.7 65.1
1998-02-06 06:00:00 -13.0 64.2 -12.6 64.8 -12.6 64.8
1998-02-06 12:00:00 -13.0 64.0 -12.5 64.5 -12.5 64.5
1998-02-06 18:00:00 -13.0 63.6 -12.5 64.3 -12.5 64.3
1998-02-07 00:00:00 -13.1 63.4 -12.6 64.1 -12.6 64.1
1998-02-07 06:00:00 -13.1 63.1 -12.8 63.6 -12.8 63.6
1998-02-07 12:00:00 -13.1 62.7 -13.0 63.1 -13.0 63.1
1998-02-07 18:00:00 -13.0 62.1 -13.0 62.6 -13.0 62.6
1998-02-08 00:00:00 -13.0 61.6 -13.0 62.1 -13.0 62.1
1998-02-08 06:00:00 -13.1 61.4 -13.0 61.7 -13.0 61.7
1998-02-08 12:00:00 -13.2 61.3 -13.1 61.5 -13.1 61.5
1998-02-08 18:00:00 -13.3 61.2 -13.2 61.2 -13.2 61.2
1998-02-09 00:00:00 -13.5 61.1 -13.2 60.9 -13.2 60.9
1998-02-09 06:00:00 -13.8 61.1 -13.6 60.8 -13.6 60.8
1998-02-09 12:00:00 -14.1 61.0 -14.1 60.7 -14.1 60.7
1998-02-09 18:00:00 -14.4 60.8 -14.6 60.2 -14.6 60.2
1998-02-10 00:00:00 -14.8 60.6 -15.1 59.8 -15.1 59.8
1998-02-10 06:00:00 -15.6 60.2 -15.8 59.5 -15.8 59.5
1998-02-10 12:00:00 -16.4 59.8 -16.6 59.5 -16.6 59.5
1998-02-10 18:00:00 -17.3 59.4 -17.4 59.2 -17.4 59.2
1998-02-11 00:00:00 -18.4 59.2 -18.6 59.0 -18.6 59.0
jtwc_sh reunion neumann
1998-02-11 06:00:00 -19.6 59.2 -19.7 58.9 -19.7 58.9
1998-02-11 12:00:00 -20.9 59.3 -20.7 58.8 -20.7 58.8
1998-02-11 18:00:00 -22.0 59.5 -21.8 58.9 -21.8 58.9
1998-02-12 00:00:00 -23.1 59.8 -22.9 59.2 -22.9 59.2
1998-02-12 06:00:00 -24.2 60.2 -23.8 59.6 -23.8 59.6
1998-02-12 12:00:00 -25.3 60.6 -24.7 60.2 -24.7 60.2
1998-02-12 18:00:00 -26.5 61.2 -26.0 61.3 -26.0 61.3
1998-02-13 00:00:00 -27.7 62.6 -27.7 62.8 -27.7 62.8
1998-02-13 06:00:00 -29.0 64.4 -29.0 64.5 -29.0 64.5
1998-02-13 12:00:00 -30.5 66.6 -30.2 66.6 -30.2 66.6
1998-02-13 18:00:00 -32.6 69.5 -33.0 70.4 -33.0 70.4
1998-02-14 00:00:00 -35.8 75.0 -35.8 75.0

top of pageTrack Data:Intensity

jtwc_sh reunion neumann
Date Wind Pres Wind Pres Wind Pres
1998-02-05 00:00:00 20.
1998-02-05 06:00:00 20.
1998-02-05 12:00:00 20.
1998-02-05 18:00:00 20.
1998-02-06 00:00:00 25. 20. 1005. 20. 1005.
1998-02-06 06:00:00 25. 20. 1004. 20. 1004.
1998-02-06 12:00:00 25. 25. 1002. 25. 1002.
1998-02-06 18:00:00 25. 25. 1002. 25. 1002.
1998-02-07 00:00:00 25. 25. 1002. 25. 1002.
1998-02-07 06:00:00 25. 25. 1002. 25. 1002.
1998-02-07 12:00:00 25. 25. 1000. 30. 1000.
1998-02-07 18:00:00 25. 25. 1000. 30. 1000.
1998-02-08 00:00:00 35. 25. 1000. 30. 1000.
1998-02-08 06:00:00 40. 30. 997. 35. 997.
1998-02-08 12:00:00 40. 30. 995. 40. 995.
1998-02-08 18:00:00 40. 35. 992. 45. 992.
1998-02-09 00:00:00 45. 35. 990. 45. 990.
1998-02-09 06:00:00 50. 40. 988. 50. 988.
1998-02-09 12:00:00 60. 45. 982. 60. 982.
1998-02-09 18:00:00 70. 50. 975. 70. 975.
1998-02-10 00:00:00 80. 55. 970. 75. 970.
1998-02-10 06:00:00 90. 60. 965. 80. 965.
1998-02-10 12:00:00 90. 65. 960. 85. 960.
1998-02-10 18:00:00 90. 70. 955. 95. 955.
1998-02-11 00:00:00 100. 70. 955. 95. 955.
jtwc_sh reunion neumann
1998-02-11 06:00:00 105. 75. 950. 100. 950.
1998-02-11 12:00:00 115. 75. 950. 100. 950.
1998-02-11 18:00:00 115. 75. 950. 100. 950.
1998-02-12 00:00:00 105. 75. 950. 100. 950.
1998-02-12 06:00:00 105. 70. 955. 95. 955.
1998-02-12 12:00:00 100. 60. 965. 80. 965.
1998-02-12 18:00:00 90. 55. 970. 75. 970.
1998-02-13 00:00:00 75. 50. 975. 70. 975.
1998-02-13 06:00:00 55. 45. 985. 55. 985.
1998-02-13 12:00:00 60. 40. 988. 50. 988.
1998-02-13 18:00:00 50. 50.
1998-02-14 00:00:00 40.

top of page Links to source data

Source Source file Format
jtwc_sh bsh201998.txt ATCF
reunion WMO-Best-Tracks.txt:Line=18124:anacelle WMO (old format)
neumann tracks.sh:Storm=1122:ANACELLE:BSH201998:Reunion HURDAT